createdAt,value
2022-11-30T00:00:51.518Z,20.83
2022-11-30T00:03:20.581Z,20.80
2022-11-30T00:05:48.892Z,20.23
2022-11-30T00:08:16.811Z,20.50
2022-11-30T00:10:44.753Z,20.83
2022-11-30T00:13:12.319Z,20.40
2022-11-30T00:15:39.951Z,20.73
2022-11-30T00:18:09.050Z,20.02
2022-11-30T00:20:36.608Z,20.70
2022-11-30T00:23:04.345Z,20.98
2022-11-30T00:25:31.898Z,20.40
2022-11-30T00:28:01.472Z,18.98
2022-11-30T00:30:29.322Z,19.95
2022-11-30T00:32:58.021Z,17.98
2022-11-30T00:35:25.618Z,19.30
2022-11-30T00:37:53.191Z,20.08
2022-11-30T00:40:20.802Z,18.80
2022-11-30T00:42:48.407Z,20.45
2022-11-30T00:45:15.982Z,19.67
2022-11-30T00:47:43.561Z,20.10
2022-11-30T00:50:11.422Z,19.98
2022-11-30T00:52:39.962Z,20.00
2022-11-30T00:55:07.901Z,19.02
2022-11-30T00:57:35.448Z,19.50
2022-11-30T01:00:02.987Z,19.13
2022-11-30T01:02:30.542Z,20.10
2022-11-30T01:04:58.142Z,19.00
2022-11-30T01:07:25.720Z,19.60
2022-11-30T01:09:53.303Z,18.98
2022-11-30T01:12:20.886Z,19.52
2022-11-30T01:14:48.720Z,20.40
2022-11-30T01:17:16.519Z,20.52
2022-11-30T01:19:44.154Z,19.85
2022-11-30T01:22:11.755Z,19.45
2022-11-30T01:24:39.294Z,19.25
2022-11-30T01:27:06.861Z,19.98
2022-11-30T01:29:34.430Z,20.10
2022-11-30T01:32:02.059Z,19.58
2022-11-30T01:34:29.641Z,20.40
2022-11-30T01:36:57.171Z,20.13
2022-11-30T01:39:24.750Z,21.95
2022-11-30T01:41:54.714Z,21.35
2022-11-30T01:44:26.552Z,21.33
2022-11-30T01:49:32.156Z,20.42
2022-11-30T01:52:09.511Z,22.10
2022-11-30T01:54:39.498Z,22.48
2022-11-30T01:57:13.683Z,22.65
2022-11-30T01:59:41.444Z,21.55
2022-11-30T02:02:10.290Z,22.67
2022-11-30T02:04:39.145Z,22.17
2022-11-30T02:07:08.263Z,21.85
2022-11-30T02:09:43.540Z,22.67
2022-11-30T02:12:31.339Z,23.35
2022-11-30T02:15:00.772Z,21.17
2022-11-30T02:17:43.678Z,23.40
2022-11-30T02:20:17.227Z,22.05
2022-11-30T02:23:03.987Z,21.40
2022-11-30T02:25:34.319Z,21.77
2022-11-30T02:28:04.646Z,21.83
2022-11-30T02:30:34.688Z,22.67
2022-11-30T02:33:05.717Z,22.17
2022-11-30T02:35:35.453Z,22.65
2022-11-30T02:38:04.805Z,21.85
2022-11-30T02:40:32.847Z,23.38
2022-11-30T02:43:02.753Z,21.33
2022-11-30T02:45:32.202Z,22.95
2022-11-30T02:48:02.601Z,23.25
2022-11-30T02:50:34.077Z,22.17
2022-11-30T02:53:01.746Z,21.98
2022-11-30T02:55:31.824Z,21.60
2022-11-30T02:57:59.384Z,21.88
2022-11-30T03:00:28.189Z,20.90
2022-11-30T03:02:55.922Z,20.20
2022-11-30T03:05:23.501Z,20.38
2022-11-30T03:07:51.089Z,21.20
2022-11-30T03:10:18.759Z,20.92
2022-11-30T03:12:46.293Z,19.88
2022-11-30T03:15:13.843Z,19.88
2022-11-30T03:17:41.403Z,19.80
2022-11-30T03:20:10.280Z,20.27
2022-11-30T03:22:37.882Z,21.00
2022-11-30T03:25:05.578Z,20.30
2022-11-30T03:27:33.139Z,18.02
2022-11-30T03:30:00.730Z,19.00
2022-11-30T03:32:28.647Z,18.38
2022-11-30T03:34:57.359Z,19.30
2022-11-30T03:37:24.896Z,18.05
2022-11-30T03:39:57.780Z,18.80
2022-11-30T03:42:25.885Z,18.80
2022-11-30T03:44:53.402Z,20.75
2022-11-30T03:47:20.959Z,20.17
2022-11-30T03:49:48.559Z,20.88
2022-11-30T03:52:16.097Z,20.55
2022-11-30T03:54:44.911Z,21.05
2022-11-30T03:57:12.776Z,21.33
2022-11-30T03:59:40.304Z,21.85
2022-11-30T04:02:07.977Z,20.88
2022-11-30T04:04:35.619Z,20.50
2022-11-30T04:07:03.178Z,20.67
2022-11-30T04:09:31.066Z,20.20
2022-11-30T04:11:58.978Z,20.45
2022-11-30T04:14:26.574Z,17.20
2022-11-30T04:16:54.124Z,18.23
2022-11-30T04:19:21.658Z,17.98
2022-11-30T04:21:49.386Z,17.60
2022-11-30T04:24:16.978Z,15.98
2022-11-30T04:26:45.921Z,15.02
2022-11-30T04:29:13.709Z,14.88
2022-11-30T04:31:41.316Z,15.20
2022-11-30T04:34:08.896Z,14.30
2022-11-30T04:36:36.503Z,15.90
2022-11-30T04:39:04.135Z,16.08
2022-11-30T04:41:31.813Z,16.67
2022-11-30T04:43:59.373Z,16.27
2022-11-30T04:46:26.997Z,15.90
2022-11-30T04:48:54.620Z,16.35
2022-11-30T04:51:22.246Z,14.52
2022-11-30T04:53:49.770Z,16.13
2022-11-30T04:56:17.335Z,16.85
2022-11-30T04:58:44.887Z,18.05
2022-11-30T05:01:13.454Z,17.52
2022-11-30T05:03:41.011Z,18.15
2022-11-30T05:06:08.594Z,20.05
2022-11-30T05:08:36.225Z,17.40
2022-11-30T05:11:03.788Z,19.77
2022-11-30T05:13:31.319Z,18.27
2022-11-30T05:15:59.014Z,17.52
2022-11-30T05:18:26.682Z,16.00
2022-11-30T05:20:54.354Z,15.73
2022-11-30T05:23:22.374Z,15.52
2022-11-30T05:25:51.925Z,15.70
2022-11-30T05:28:19.692Z,16.83
2022-11-30T05:30:47.290Z,17.55
2022-11-30T05:33:14.960Z,17.38
2022-11-30T05:35:42.492Z,17.27
2022-11-30T05:38:10.078Z,16.40
2022-11-30T05:40:37.646Z,16.48
2022-11-30T05:43:05.942Z,15.20
2022-11-30T05:45:33.487Z,14.45
2022-11-30T05:48:01.077Z,14.13
2022-11-30T05:50:28.703Z,14.43
2022-11-30T05:52:56.859Z,13.65
2022-11-30T05:55:28.694Z,14.05
2022-11-30T06:00:23.770Z,14.65
2022-11-30T06:02:56.814Z,14.90
2022-11-30T06:05:24.566Z,15.27
2022-11-30T06:07:52.187Z,15.52
2022-11-30T06:10:20.038Z,15.05
2022-11-30T06:12:48.585Z,15.55
2022-11-30T06:15:16.248Z,15.63
2022-11-30T06:17:43.801Z,15.38
2022-11-30T06:20:11.492Z,13.48
2022-11-30T06:22:39.087Z,14.95
2022-11-30T06:25:06.761Z,13.98
2022-11-30T06:27:34.335Z,13.70
2022-11-30T06:30:01.934Z,15.18
2022-11-30T06:32:29.480Z,15.13
2022-11-30T06:34:57.070Z,14.52
2022-11-30T06:37:24.862Z,14.65
2022-11-30T06:40:06.474Z,13.20
2022-11-30T06:42:36.316Z,14.15
2022-11-30T06:45:04.511Z,14.05
2022-11-30T06:47:32.110Z,14.35
2022-11-30T06:49:59.695Z,13.95
2022-11-30T06:52:27.361Z,13.18
2022-11-30T06:54:54.921Z,12.43
2022-11-30T06:57:26.566Z,13.25
2022-11-30T06:59:54.183Z,12.75
2022-11-30T07:02:21.738Z,13.45
2022-11-30T07:04:49.692Z,13.27
2022-11-30T07:07:17.524Z,13.95
2022-11-30T07:09:45.140Z,13.30
2022-11-30T07:12:12.839Z,12.45
2022-11-30T07:14:40.429Z,12.52
2022-11-30T07:17:08.126Z,14.05
2022-11-30T07:19:35.724Z,12.70
2022-11-30T07:22:03.492Z,12.90
2022-11-30T07:24:50.227Z,13.45
2022-11-30T07:27:18.032Z,11.85
2022-11-30T07:29:48.546Z,12.68
2022-11-30T07:32:16.064Z,13.40
2022-11-30T07:34:43.625Z,13.68
2022-11-30T07:37:11.514Z,14.02
2022-11-30T07:39:39.171Z,13.82
2022-11-30T07:42:06.695Z,15.27
2022-11-30T07:44:34.277Z,14.30
2022-11-30T07:47:01.888Z,14.23
2022-11-30T07:49:29.607Z,14.02
2022-11-30T07:51:57.172Z,15.25
2022-11-30T07:54:24.830Z,14.43
2022-11-30T07:56:52.445Z,15.20
2022-11-30T07:59:20.057Z,15.95
2022-11-30T08:01:47.785Z,15.38
2022-11-30T08:04:15.622Z,15.88
2022-11-30T08:06:43.395Z,16.90
2022-11-30T08:09:19.234Z,16.42
2022-11-30T08:11:49.791Z,17.13
2022-11-30T08:14:17.570Z,16.27
2022-11-30T08:16:45.278Z,16.35
2022-11-30T08:19:13.157Z,16.38
2022-11-30T08:21:40.722Z,16.05
2022-11-30T08:24:13.667Z,16.85
2022-11-30T08:26:41.355Z,15.55
2022-11-30T08:29:11.485Z,16.27
2022-11-30T08:31:40.216Z,15.98
2022-11-30T08:34:09.070Z,15.27
2022-11-30T08:36:36.744Z,16.00
2022-11-30T08:39:05.494Z,16.75
2022-11-30T08:41:34.710Z,15.10
2022-11-30T08:44:02.463Z,15.13
2022-11-30T08:49:23.405Z,16.58
2022-11-30T08:54:42.287Z,16.30
2022-11-30T08:57:09.917Z,16.98
2022-11-30T08:59:37.579Z,16.42
2022-11-30T09:02:05.571Z,16.40
2022-11-30T09:04:33.152Z,15.98
2022-11-30T09:07:00.935Z,16.50
2022-11-30T09:09:29.422Z,17.40
2022-11-30T09:11:57.031Z,15.40
2022-11-30T09:14:24.565Z,15.90
2022-11-30T09:16:53.485Z,15.65
2022-11-30T09:19:21.021Z,16.40
2022-11-30T09:21:51.851Z,16.08
2022-11-30T09:24:20.778Z,11.85
2022-11-30T09:26:48.707Z,15.80
2022-11-30T09:29:16.352Z,16.05
2022-11-30T09:31:44.035Z,14.82
2022-11-30T09:34:12.140Z,14.65
2022-11-30T09:36:40.681Z,14.50
2022-11-30T09:39:15.230Z,15.60
2022-11-30T09:42:03.884Z,15.35
2022-11-30T09:44:44.877Z,15.48
2022-11-30T09:47:18.519Z,15.13
2022-11-30T09:49:48.873Z,15.00
2022-11-30T09:52:38.101Z,14.40
2022-11-30T09:55:10.246Z,14.10
2022-11-30T09:57:40.782Z,15.13
2022-11-30T10:00:15.025Z,15.10
2022-11-30T10:02:43.121Z,14.20
2022-11-30T10:05:14.973Z,14.65
2022-11-30T10:08:02.952Z,13.52
2022-11-30T10:10:56.836Z,14.25
2022-11-30T10:13:43.266Z,13.98
2022-11-30T10:16:22.754Z,12.05
2022-11-30T10:18:53.503Z,13.00
2022-11-30T10:21:40.250Z,13.25
2022-11-30T10:24:17.398Z,12.95
2022-11-30T10:26:55.431Z,13.23
2022-11-30T10:29:35.594Z,14.38
2022-11-30T10:32:16.597Z,13.63
2022-11-30T10:34:45.431Z,13.63
2022-11-30T10:37:18.091Z,13.48
2022-11-30T10:39:57.996Z,13.10
2022-11-30T10:42:28.735Z,13.18
2022-11-30T10:45:01.372Z,12.95
2022-11-30T10:47:38.972Z,12.05
2022-11-30T10:50:08.015Z,12.95
2022-11-30T10:52:42.881Z,13.23
2022-11-30T10:55:30.769Z,12.25
2022-11-30T10:58:07.984Z,12.43
2022-11-30T11:00:37.073Z,11.63
2022-11-30T11:03:22.739Z,11.65
2022-11-30T11:06:03.621Z,11.02
2022-11-30T11:08:31.580Z,10.43
2022-11-30T11:10:59.439Z,10.05
2022-11-30T11:13:40.113Z,9.55
2022-11-30T11:16:12.150Z,10.40
2022-11-30T11:18:53.788Z,10.93
2022-11-30T11:21:22.839Z,9.70
2022-11-30T11:23:54.874Z,9.13
2022-11-30T11:26:22.598Z,8.23
2022-11-30T11:28:51.546Z,8.65
2022-11-30T11:31:21.971Z,8.43
2022-11-30T11:33:54.903Z,7.55
2022-11-30T11:36:27.005Z,7.57
2022-11-30T11:38:54.899Z,6.60
2022-11-30T11:41:22.490Z,7.07
2022-11-30T11:43:58.891Z,6.80
2022-11-30T11:46:26.460Z,6.40
2022-11-30T11:49:08.138Z,6.05
2022-11-30T11:51:37.036Z,9.43
2022-11-30T11:54:13.795Z,10.02
2022-11-30T11:56:41.962Z,11.70
2022-11-30T11:59:18.639Z,11.13
2022-11-30T12:02:18.967Z,12.20
2022-11-30T12:04:49.022Z,11.85
2022-11-30T12:07:34.814Z,13.23
2022-11-30T12:13:22.196Z,12.13
2022-11-30T12:15:49.816Z,12.55
2022-11-30T12:18:24.545Z,11.43
2022-11-30T12:20:57.382Z,10.95
2022-11-30T12:23:39.878Z,11.63
2022-11-30T12:26:28.061Z,11.60
2022-11-30T12:29:08.026Z,10.88
2022-11-30T12:31:50.770Z,10.23
2022-11-30T12:34:21.134Z,10.20
2022-11-30T12:36:57.815Z,10.48
2022-11-30T12:39:25.747Z,10.00
2022-11-30T12:42:01.638Z,11.18
2022-11-30T12:44:29.224Z,10.50
2022-11-30T12:47:20.286Z,11.20
2022-11-30T12:49:53.771Z,11.43
2022-11-30T12:52:28.118Z,12.05
2022-11-30T12:55:17.188Z,12.55
2022-11-30T12:57:50.261Z,13.40
2022-11-30T13:00:21.185Z,13.43
2022-11-30T13:03:07.301Z,13.75
2022-11-30T13:05:38.298Z,13.85
2022-11-30T13:08:16.017Z,14.50
2022-11-30T13:10:43.657Z,13.82
2022-11-30T13:13:16.985Z,13.25
2022-11-30T13:15:45.316Z,13.63
2022-11-30T13:18:18.965Z,12.45
2022-11-30T13:20:49.459Z,12.27
2022-11-30T13:23:23.220Z,11.40
2022-11-30T13:26:13.265Z,11.68
2022-11-30T13:28:43.770Z,11.48
2022-11-30T13:31:15.598Z,11.98
2022-11-30T13:36:46.149Z,9.90
2022-11-30T13:39:16.592Z,11.10
2022-11-30T13:41:51.337Z,10.73
2022-11-30T13:44:38.552Z,10.00
2022-11-30T13:47:10.927Z,10.52
2022-11-30T13:49:38.543Z,10.00
2022-11-30T13:52:22.664Z,9.35
2022-11-30T13:54:53.788Z,9.82
2022-11-30T13:57:30.460Z,9.30
2022-11-30T13:59:59.082Z,9.63
2022-11-30T14:05:18.615Z,11.75
2022-11-30T14:08:02.913Z,11.45
2022-11-30T14:10:44.535Z,12.60
2022-11-30T14:13:13.436Z,12.75
2022-11-30T14:15:42.150Z,14.25
2022-11-30T14:18:09.794Z,14.27
2022-11-30T14:20:39.967Z,13.90
2022-11-30T14:23:08.764Z,13.88
2022-11-30T14:25:37.777Z,13.38
2022-11-30T14:28:06.123Z,13.00
2022-11-30T14:30:34.858Z,12.90
2022-11-30T14:33:05.662Z,12.77
2022-11-30T14:35:34.002Z,14.50
2022-11-30T14:38:03.481Z,15.35
2022-11-30T14:40:32.296Z,16.35
2022-11-30T14:43:01.487Z,15.77
2022-11-30T14:45:30.898Z,16.52
2022-11-30T14:48:15.618Z,15.88
2022-11-30T14:50:46.268Z,16.63
2022-11-30T14:53:34.798Z,15.90
2022-11-30T14:56:09.451Z,17.05
2022-11-30T14:58:44.491Z,17.30
2022-11-30T15:01:19.916Z,16.83
2022-11-30T15:03:48.847Z,17.15
2022-11-30T15:06:18.358Z,16.63
2022-11-30T15:08:48.508Z,17.70
2022-11-30T15:11:17.154Z,17.75
2022-11-30T15:13:47.134Z,17.63
2022-11-30T15:16:33.041Z,17.08
2022-11-30T15:19:00.948Z,18.00
2022-11-30T15:21:29.854Z,17.23
2022-11-30T15:23:58.738Z,16.20
2022-11-30T15:26:30.244Z,17.63
2022-11-30T15:29:18.324Z,18.98
2022-11-30T15:31:49.779Z,17.38
2022-11-30T15:34:36.784Z,17.15
2022-11-30T15:37:04.828Z,15.98
2022-11-30T15:39:33.070Z,16.67
2022-11-30T15:42:01.974Z,17.77
2022-11-30T15:44:40.325Z,16.83
2022-11-30T15:47:23.478Z,15.95
2022-11-30T15:49:52.874Z,16.02
2022-11-30T15:52:20.925Z,17.83
2022-11-30T15:54:55.235Z,17.27
2022-11-30T15:57:24.283Z,18.63
2022-11-30T16:00:30.534Z,17.40
2022-11-30T16:03:10.951Z,17.15
2022-11-30T16:05:39.638Z,17.00
2022-11-30T16:08:15.118Z,17.17
2022-11-30T16:10:43.835Z,16.27
2022-11-30T16:13:19.627Z,17.38
2022-11-30T16:15:48.673Z,16.98
2022-11-30T16:18:18.949Z,16.67
2022-11-30T16:20:48.269Z,16.85
2022-11-30T16:23:16.603Z,17.08
2022-11-30T16:25:45.022Z,17.08
2022-11-30T16:28:13.879Z,16.83
2022-11-30T16:30:42.192Z,16.58
2022-11-30T16:33:14.685Z,15.75
2022-11-30T16:36:06.429Z,16.92
2022-11-30T16:38:34.175Z,17.17
2022-11-30T16:41:13.703Z,15.65
2022-11-30T16:43:41.842Z,16.75
2022-11-30T16:46:11.039Z,16.60
2022-11-30T16:48:38.745Z,17.63
2022-11-30T16:51:06.931Z,16.48
2022-11-30T16:53:34.501Z,17.55
2022-11-30T16:56:02.076Z,17.75
2022-11-30T16:58:29.717Z,18.50
2022-11-30T17:01:00.166Z,16.90
2022-11-30T17:03:30.571Z,17.08
2022-11-30T17:05:58.265Z,17.48
2022-11-30T17:08:26.019Z,18.02
2022-11-30T17:10:54.647Z,17.67
2022-11-30T17:13:22.515Z,17.00
2022-11-30T17:15:50.259Z,17.00
2022-11-30T17:18:17.998Z,17.58
2022-11-30T17:20:45.748Z,18.05
2022-11-30T17:23:14.553Z,16.75
2022-11-30T17:25:42.653Z,16.77
2022-11-30T17:28:10.494Z,16.88
2022-11-30T17:30:38.408Z,16.48
2022-11-30T17:33:06.243Z,17.00
2022-11-30T17:35:34.064Z,15.68
2022-11-30T17:38:01.794Z,17.00
2022-11-30T17:40:29.381Z,15.80
2022-11-30T17:42:56.980Z,17.38
2022-11-30T17:45:24.729Z,17.35
2022-11-30T17:47:52.475Z,16.70
2022-11-30T17:50:20.176Z,16.70
2022-11-30T17:52:48.007Z,16.80
2022-11-30T17:55:15.582Z,17.02
2022-11-30T17:57:43.685Z,16.33
2022-11-30T18:00:11.691Z,16.38
2022-11-30T18:02:39.419Z,15.88
2022-11-30T18:05:07.398Z,15.90
2022-11-30T18:07:35.258Z,16.27
2022-11-30T18:10:03.269Z,16.05
2022-11-30T18:12:30.896Z,16.52
2022-11-30T18:14:58.722Z,17.00
2022-11-30T18:17:26.286Z,15.68
2022-11-30T18:19:54.512Z,16.65
2022-11-30T18:22:22.066Z,17.00
2022-11-30T18:24:49.938Z,16.85
2022-11-30T18:27:18.010Z,16.85
2022-11-30T18:29:45.671Z,16.40
2022-11-30T18:32:13.333Z,17.45
2022-11-30T18:34:41.097Z,16.52
2022-11-30T18:37:08.694Z,17.02
2022-11-30T18:39:36.409Z,17.30
2022-11-30T18:42:04.048Z,18.70
2022-11-30T18:44:31.684Z,16.92
2022-11-30T18:46:59.308Z,18.38
2022-11-30T18:49:26.913Z,20.05
2022-11-30T18:51:54.503Z,18.80
2022-11-30T18:54:22.387Z,18.30
2022-11-30T18:56:49.977Z,19.63
2022-11-30T18:59:18.037Z,19.73
2022-11-30T19:01:46.451Z,19.02
2022-11-30T19:04:14.514Z,19.05
2022-11-30T19:06:42.811Z,20.80
2022-11-30T19:09:11.894Z,20.05
2022-11-30T19:11:40.067Z,20.30
2022-11-30T19:14:07.718Z,20.63
2022-11-30T19:16:35.838Z,19.95
2022-11-30T19:19:05.657Z,20.45
2022-11-30T19:21:33.783Z,20.90
2022-11-30T19:24:01.754Z,21.15
2022-11-30T19:26:29.538Z,20.52
2022-11-30T19:28:57.815Z,21.00
2022-11-30T19:31:25.537Z,20.08
2022-11-30T19:33:54.511Z,20.30
2022-11-30T19:36:23.976Z,19.95
2022-11-30T19:38:51.733Z,19.50
2022-11-30T19:41:20.133Z,21.25
2022-11-30T19:43:54.807Z,19.75
2022-11-30T19:46:24.694Z,19.63
2022-11-30T19:48:57.090Z,19.55
2022-11-30T19:51:24.922Z,20.15
2022-11-30T19:53:55.612Z,20.10
2022-11-30T19:56:24.919Z,19.85
2022-11-30T19:58:52.648Z,18.88
2022-11-30T20:01:24.422Z,20.85
2022-11-30T20:06:19.670Z,19.27
2022-11-30T20:08:47.280Z,19.90
2022-11-30T20:11:15.812Z,20.70
2022-11-30T20:13:46.560Z,20.42
2022-11-30T20:16:15.272Z,20.48
2022-11-30T20:18:46.219Z,20.67
2022-11-30T20:21:22.103Z,20.77
2022-11-30T20:23:50.220Z,20.20
2022-11-30T20:26:18.038Z,20.55
2022-11-30T20:28:46.183Z,20.27
2022-11-30T20:31:14.999Z,21.05
2022-11-30T20:33:43.271Z,21.48
2022-11-30T20:36:11.625Z,20.52
2022-11-30T20:38:39.489Z,21.95
2022-11-30T20:41:10.252Z,21.55
2022-11-30T20:43:37.952Z,21.13
2022-11-30T20:46:19.389Z,22.23
2022-11-30T20:48:47.346Z,20.92
2022-11-30T20:51:32.820Z,20.15
2022-11-30T20:54:02.159Z,20.52
2022-11-30T20:56:30.016Z,20.85
2022-11-30T20:59:00.843Z,21.48
2022-11-30T21:01:28.743Z,20.80
2022-11-30T21:03:56.434Z,21.08
2022-11-30T21:06:24.191Z,20.75
2022-11-30T21:08:51.842Z,20.65
2022-11-30T21:11:20.739Z,21.05
2022-11-30T21:13:49.501Z,20.95
2022-11-30T21:16:22.487Z,21.83
2022-11-30T21:18:53.392Z,22.15
2022-11-30T21:21:22.766Z,21.10
2022-11-30T21:23:50.863Z,22.17
2022-11-30T21:26:19.935Z,23.92
2022-11-30T21:28:48.428Z,21.95
2022-11-30T21:31:16.353Z,22.02
2022-11-30T21:33:50.475Z,23.10
2022-11-30T21:36:20.787Z,22.83
2022-11-30T21:38:48.487Z,23.13
2022-11-30T21:41:16.056Z,23.15
2022-11-30T21:43:43.669Z,23.80
2022-11-30T21:46:13.019Z,23.80
2022-11-30T21:48:41.517Z,23.90
2022-11-30T21:51:10.142Z,24.27
2022-11-30T21:53:39.656Z,22.58
2022-11-30T21:56:08.589Z,21.85
2022-11-30T21:58:36.223Z,22.17
2022-11-30T22:01:03.818Z,22.77
2022-11-30T22:03:31.750Z,23.67
2022-11-30T22:06:00.586Z,21.92
2022-11-30T22:08:28.230Z,21.25
2022-11-30T22:10:56.158Z,21.67
2022-11-30T22:13:23.681Z,20.88
2022-11-30T22:15:57.570Z,20.48
2022-11-30T22:18:25.270Z,20.45
2022-11-30T22:20:52.913Z,21.17
2022-11-30T22:23:20.454Z,20.10
2022-11-30T22:25:48.095Z,19.67
2022-11-30T22:28:15.622Z,20.45
2022-11-30T22:30:44.439Z,21.42
2022-11-30T22:33:12.105Z,21.15
2022-11-30T22:35:39.734Z,20.70
2022-11-30T22:38:07.458Z,20.92
2022-11-30T22:40:35.033Z,20.27
2022-11-30T22:43:02.737Z,21.27
2022-11-30T22:45:30.345Z,20.73
2022-11-30T22:47:57.849Z,20.52
2022-11-30T22:50:25.545Z,21.38
2022-11-30T22:53:02.972Z,21.70
2022-11-30T22:55:32.803Z,20.98
2022-11-30T22:58:00.460Z,21.35
2022-11-30T23:00:28.118Z,23.25
2022-11-30T23:02:55.762Z,21.58
2022-11-30T23:05:23.481Z,21.88
2022-11-30T23:07:51.084Z,23.83
2022-11-30T23:10:19.124Z,22.30
2022-11-30T23:13:01.951Z,22.70
2022-11-30T23:15:29.617Z,24.27
2022-11-30T23:17:57.209Z,25.00
2022-11-30T23:20:24.806Z,23.95
2022-11-30T23:22:52.373Z,24.10
2022-11-30T23:25:19.993Z,25.00
2022-11-30T23:27:47.544Z,22.73
2022-11-30T23:30:15.244Z,24.70
2022-11-30T23:32:42.778Z,24.95
2022-11-30T23:35:10.357Z,24.02
2022-11-30T23:37:37.901Z,23.85
2022-11-30T23:40:05.791Z,23.70
2022-11-30T23:42:33.419Z,24.58
2022-11-30T23:45:01.083Z,23.58
2022-11-30T23:47:28.849Z,24.63
2022-11-30T23:49:56.458Z,25.40
2022-11-30T23:52:24.010Z,25.35
2022-11-30T23:54:51.606Z,24.95
2022-11-30T23:57:19.210Z,24.65
2022-11-30T23:59:47.205Z,24.77
